createdAt,value
2023-01-29T00:01:13.377Z,98010.89
2023-01-29T00:03:42.063Z,98011.17
2023-01-29T00:06:11.474Z,98013.70
2023-01-29T00:08:40.210Z,98015.34
2023-01-29T00:11:09.493Z,98016.97
2023-01-29T00:13:38.991Z,98022.24
2023-01-29T00:16:07.628Z,98027.25
2023-01-29T00:18:40.589Z,98024.02
2023-01-29T00:21:14.375Z,98025.83
2023-01-29T00:23:43.538Z,98025.36
2023-01-29T00:26:13.409Z,98024.33
2023-01-29T00:28:44.259Z,98024.31
2023-01-29T00:31:22.465Z,98024.44
2023-01-29T00:33:51.737Z,98025.44
2023-01-29T00:36:22.131Z,98027.77
2023-01-29T00:38:59.025Z,98028.26
2023-01-29T00:41:48.257Z,98028.48
2023-01-29T00:44:35.901Z,98025.80
2023-01-29T00:47:05.356Z,98022.20
2023-01-29T00:49:34.059Z,98023.52
2023-01-29T00:52:21.029Z,98017.39
2023-01-29T00:54:52.641Z,98021.15
2023-01-29T00:57:21.550Z,98022.44
2023-01-29T00:59:50.559Z,98023.30
2023-01-29T01:02:38.500Z,98021.64
2023-01-29T01:05:14.204Z,98023.81
2023-01-29T01:08:01.443Z,98025.40
2023-01-29T01:10:35.242Z,98021.92
2023-01-29T01:13:07.412Z,98019.30
2023-01-29T01:15:40.841Z,98016.63
2023-01-29T01:18:09.561Z,98017.14
2023-01-29T01:20:38.063Z,98012.02
2023-01-29T01:23:07.055Z,98010.24
2023-01-29T01:25:35.531Z,98007.88
2023-01-29T01:28:03.962Z,98011.45
2023-01-29T01:30:33.315Z,98007.30
2023-01-29T01:33:02.418Z,98005.36
2023-01-29T01:35:32.203Z,98004.04
2023-01-29T01:38:00.697Z,98001.81
2023-01-29T01:40:29.543Z,97999.79
2023-01-29T01:43:00.545Z,97999.79
2023-01-29T01:45:36.070Z,97997.52
2023-01-29T01:48:23.303Z,98001.10
2023-01-29T01:51:03.598Z,98005.92
2023-01-29T01:53:40.168Z,98009.45
2023-01-29T01:56:16.533Z,98009.16
2023-01-29T01:58:52.024Z,98013.33
2023-01-29T02:01:30.477Z,98012.29
2023-01-29T02:04:26.799Z,98012.86
2023-01-29T02:07:16.384Z,98014.44
2023-01-29T02:09:51.884Z,98019.20
2023-01-29T02:12:25.022Z,98016.88
2023-01-29T02:14:53.401Z,98014.98
2023-01-29T02:17:22.224Z,98013.96
2023-01-29T02:20:12.107Z,98011.08
2023-01-29T02:22:59.447Z,98014.12
2023-01-29T02:25:52.716Z,98015.71
2023-01-29T02:28:24.002Z,98015.96
2023-01-29T02:31:09.680Z,98013.38
2023-01-29T02:33:51.847Z,98017.50
2023-01-29T02:36:30.292Z,98019.45
2023-01-29T02:39:19.652Z,98023.16
2023-01-29T02:42:03.314Z,98021.34
2023-01-29T02:44:44.525Z,98026.00
2023-01-29T02:47:33.666Z,98029.27
2023-01-29T02:50:10.867Z,98035.91
2023-01-29T02:52:54.422Z,98039.39
2023-01-29T02:55:29.711Z,98042.15
2023-01-29T02:58:07.834Z,98052.46
2023-01-29T03:00:41.594Z,98058.89
2023-01-29T03:03:19.214Z,98065.58
2023-01-29T03:05:51.434Z,98064.80
2023-01-29T03:08:36.981Z,98069.27
2023-01-29T03:11:07.312Z,98065.00
2023-01-29T03:13:53.686Z,98064.77
2023-01-29T03:16:33.116Z,98070.25
2023-01-29T03:19:32.139Z,98074.07
2023-01-29T03:22:04.772Z,98076.59
2023-01-29T03:25:00.944Z,98076.75
2023-01-29T03:28:19.182Z,98075.63
2023-01-29T03:31:09.550Z,98076.79
2023-01-29T03:34:08.196Z,98077.15
2023-01-29T03:36:47.999Z,98076.16
2023-01-29T03:39:18.360Z,98080.01
2023-01-29T03:42:19.713Z,98081.77
2023-01-29T03:44:49.023Z,98085.30
2023-01-29T03:47:49.816Z,98087.98
2023-01-29T03:50:41.308Z,98088.77
2023-01-29T03:53:15.755Z,98090.02
2023-01-29T03:55:58.425Z,98091.95
2023-01-29T03:58:47.839Z,98094.55
2023-01-29T04:01:56.314Z,98089.44
2023-01-29T04:04:30.432Z,98090.48
2023-01-29T04:07:24.829Z,98092.17
2023-01-29T04:10:11.706Z,98089.75
2023-01-29T04:12:53.599Z,98093.39
2023-01-29T04:15:24.401Z,98096.20
2023-01-29T04:17:56.079Z,98100.39
2023-01-29T04:20:47.072Z,98098.36
2023-01-29T04:23:27.076Z,98096.13
2023-01-29T04:26:08.257Z,98091.57
2023-01-29T04:29:00.311Z,98092.05
2023-01-29T04:31:39.098Z,98086.64
2023-01-29T04:34:11.792Z,98087.40
2023-01-29T04:36:49.247Z,98091.02
2023-01-29T04:39:47.085Z,98085.93
2023-01-29T04:42:41.871Z,98085.88
2023-01-29T04:45:28.927Z,98088.69
2023-01-29T04:48:09.703Z,98092.03
2023-01-29T04:50:50.490Z,98094.94
2023-01-29T04:53:41.785Z,98094.77
2023-01-29T04:56:31.083Z,98097.73
2023-01-29T04:59:07.631Z,98100.36
2023-01-29T05:01:38.296Z,98097.64
2023-01-29T05:04:12.264Z,98102.61
2023-01-29T05:06:41.865Z,98100.65
2023-01-29T05:09:10.295Z,98111.94
2023-01-29T05:11:38.703Z,98116.11
2023-01-29T05:14:10.242Z,98121.09
2023-01-29T05:16:43.848Z,98122.36
2023-01-29T05:19:14.923Z,98126.92
2023-01-29T05:21:46.874Z,98128.18
2023-01-29T05:24:24.265Z,98126.86
2023-01-29T05:27:13.536Z,98128.56
2023-01-29T05:29:48.640Z,98126.33
2023-01-29T05:32:17.123Z,98128.94
2023-01-29T05:34:45.587Z,98132.13
2023-01-29T05:37:14.041Z,98134.59
2023-01-29T05:39:42.444Z,98140.39
2023-01-29T05:42:10.869Z,98140.53
2023-01-29T05:44:39.336Z,98138.88
2023-01-29T05:47:07.775Z,98139.27
2023-01-29T05:49:38.642Z,98144.05
2023-01-29T05:52:07.236Z,98147.52
2023-01-29T05:54:35.707Z,98145.71
2023-01-29T05:57:04.392Z,98146.94
2023-01-29T05:59:32.870Z,98152.80
2023-01-29T06:02:01.457Z,98153.60
2023-01-29T06:04:29.945Z,98156.00
2023-01-29T06:06:58.458Z,98160.77
2023-01-29T06:09:26.973Z,98161.08
2023-01-29T06:11:55.519Z,98169.58
2023-01-29T06:14:24.090Z,98172.14
2023-01-29T06:16:52.635Z,98170.91
2023-01-29T06:19:21.210Z,98176.98
2023-01-29T06:21:50.127Z,98178.60
2023-01-29T06:24:18.728Z,98176.31
2023-01-29T06:26:47.381Z,98179.64
2023-01-29T06:29:16.015Z,98183.20
2023-01-29T06:31:44.580Z,98183.94
2023-01-29T06:34:13.310Z,98181.47
2023-01-29T06:36:42.576Z,98178.36
2023-01-29T06:39:11.657Z,98179.88
2023-01-29T06:41:40.910Z,98182.85
2023-01-29T06:44:09.480Z,98184.02
2023-01-29T06:46:38.992Z,98186.03
2023-01-29T06:49:07.564Z,98186.69
2023-01-29T06:51:36.144Z,98183.47
2023-01-29T06:54:07.674Z,98188.34
2023-01-29T06:56:36.393Z,98191.84
2023-01-29T06:59:05.635Z,98190.02
2023-01-29T07:01:36.593Z,98194.89
2023-01-29T07:04:05.538Z,98194.10
2023-01-29T07:06:34.219Z,98185.20
2023-01-29T07:09:04.524Z,98181.05
2023-01-29T07:11:35.361Z,98188.16
2023-01-29T07:14:05.306Z,98186.03
2023-01-29T07:16:38.396Z,98184.94
2023-01-29T07:19:06.952Z,98181.13
2023-01-29T07:21:35.444Z,98178.91
2023-01-29T07:24:04.300Z,98180.88
2023-01-29T07:26:32.826Z,98175.14
2023-01-29T07:29:01.393Z,98174.02
2023-01-29T07:31:30.775Z,98176.61
2023-01-29T07:33:59.599Z,98177.02
2023-01-29T07:36:29.466Z,98175.10
2023-01-29T07:38:58.602Z,98181.77
2023-01-29T07:41:27.241Z,98183.36
2023-01-29T07:43:56.583Z,98188.45
2023-01-29T07:46:25.147Z,98190.95
2023-01-29T07:48:54.129Z,98192.86
2023-01-29T07:51:22.825Z,98199.66
2023-01-29T07:53:53.839Z,98197.77
2023-01-29T07:56:22.469Z,98192.86
2023-01-29T07:58:51.036Z,98190.43
2023-01-29T08:01:19.648Z,98185.11
2023-01-29T08:03:50.516Z,98187.61
2023-01-29T08:06:19.873Z,98192.37
2023-01-29T08:08:53.859Z,98186.87
2023-01-29T08:11:22.424Z,98189.48
2023-01-29T08:13:51.316Z,98191.31
2023-01-29T08:16:23.129Z,98191.63
2023-01-29T08:18:51.860Z,98193.23
2023-01-29T08:21:20.556Z,98196.40
2023-01-29T08:23:49.202Z,98199.27
2023-01-29T08:26:17.603Z,98200.45
2023-01-29T08:28:46.228Z,98205.42
2023-01-29T08:31:16.530Z,98208.54
2023-01-29T08:33:45.049Z,98211.88
2023-01-29T08:36:13.930Z,98210.41
2023-01-29T08:38:42.574Z,98214.20
2023-01-29T08:41:11.236Z,98215.80
2023-01-29T08:43:40.736Z,98213.68
2023-01-29T08:46:09.564Z,98211.44
2023-01-29T08:48:38.330Z,98212.98
2023-01-29T08:51:07.277Z,98219.80
2023-01-29T08:53:36.813Z,98217.76
2023-01-29T08:56:05.560Z,98224.15
2023-01-29T08:58:34.108Z,98221.90
2023-01-29T09:01:11.757Z,98221.29
2023-01-29T09:03:44.666Z,98221.88
2023-01-29T09:06:14.139Z,98223.39
2023-01-29T09:08:42.567Z,98221.56
2023-01-29T09:11:11.920Z,98219.84
2023-01-29T09:13:40.487Z,98223.42
2023-01-29T09:16:10.924Z,98224.61
2023-01-29T09:18:39.492Z,98224.51
2023-01-29T09:21:08.032Z,98227.93
2023-01-29T09:23:36.529Z,98224.29
2023-01-29T09:26:05.114Z,98221.82
2023-01-29T09:28:33.534Z,98224.13
2023-01-29T09:31:03.685Z,98219.80
2023-01-29T09:33:32.741Z,98214.93
2023-01-29T09:36:03.718Z,98219.20
2023-01-29T09:38:32.247Z,98219.28
2023-01-29T09:41:15.910Z,98214.02
2023-01-29T09:43:56.993Z,98207.44
2023-01-29T09:46:34.533Z,98201.77
2023-01-29T09:49:34.200Z,98199.98
2023-01-29T09:52:10.446Z,98193.52
2023-01-29T09:54:54.324Z,98188.58
2023-01-29T09:57:28.204Z,98184.67
2023-01-29T09:59:56.751Z,98182.67
2023-01-29T10:02:53.361Z,98186.03
2023-01-29T10:05:58.833Z,98188.89
2023-01-29T10:08:47.946Z,98184.90
2023-01-29T10:11:55.209Z,98184.58
2023-01-29T10:14:43.419Z,98184.55
2023-01-29T10:17:40.259Z,98184.44
2023-01-29T10:20:37.538Z,98184.30
2023-01-29T10:23:26.754Z,98182.91
2023-01-29T10:25:55.840Z,98187.08
2023-01-29T10:28:39.126Z,98189.73
2023-01-29T10:31:12.701Z,98187.88
2023-01-29T10:33:49.561Z,98196.14
2023-01-29T10:36:47.575Z,98199.59
2023-01-29T10:39:26.895Z,98199.63
2023-01-29T10:42:07.726Z,98196.75
2023-01-29T10:45:07.524Z,98196.20
2023-01-29T10:47:54.728Z,98196.02
2023-01-29T10:50:38.433Z,98199.38
2023-01-29T10:53:25.868Z,98198.07
2023-01-29T10:56:29.594Z,98197.02
2023-01-29T10:59:05.626Z,98197.11
2023-01-29T11:01:34.158Z,98196.70
2023-01-29T11:04:06.495Z,98192.73
2023-01-29T11:06:36.785Z,98194.80
2023-01-29T11:12:15.593Z,98194.46
2023-01-29T11:14:53.031Z,98188.35
2023-01-29T11:17:24.394Z,98187.60
2023-01-29T11:19:57.508Z,98188.02
2023-01-29T11:22:31.684Z,98189.65
2023-01-29T11:25:21.111Z,98190.33
2023-01-29T11:27:56.154Z,98187.83
2023-01-29T11:30:28.197Z,98185.02
2023-01-29T11:33:20.798Z,98182.38
2023-01-29T11:35:50.224Z,98177.93
2023-01-29T11:38:29.937Z,98178.83
2023-01-29T11:41:22.592Z,98172.17
2023-01-29T11:43:51.040Z,98172.69
2023-01-29T11:46:19.502Z,98171.46
2023-01-29T11:48:53.559Z,98167.05
2023-01-29T11:51:26.130Z,98162.51
2023-01-29T11:54:01.380Z,98163.73
2023-01-29T11:56:41.756Z,98166.10
2023-01-29T11:59:25.249Z,98162.52
2023-01-29T12:01:55.726Z,98158.52
2023-01-29T12:04:26.620Z,98152.73
2023-01-29T12:06:55.131Z,98157.10
2023-01-29T12:09:28.427Z,98152.71
2023-01-29T12:12:36.920Z,98148.17
2023-01-29T12:15:14.440Z,98147.27
2023-01-29T12:17:52.410Z,98143.88
2023-01-29T12:20:29.273Z,98143.58
2023-01-29T12:23:12.863Z,98146.77
2023-01-29T12:25:50.308Z,98146.94
2023-01-29T12:28:39.515Z,98147.38
2023-01-29T12:31:53.695Z,98143.85
2023-01-29T12:34:31.839Z,98147.51
2023-01-29T12:37:05.244Z,98146.97
2023-01-29T12:39:33.689Z,98143.91
2023-01-29T12:42:09.215Z,98146.83
2023-01-29T12:44:43.948Z,98154.14
2023-01-29T12:47:32.548Z,98149.88
2023-01-29T12:50:24.423Z,98148.70
2023-01-29T12:52:55.498Z,98150.25
2023-01-29T12:55:34.552Z,98147.64
2023-01-29T12:58:10.115Z,98147.02
2023-01-29T13:00:46.215Z,98148.50
2023-01-29T13:03:30.089Z,98146.74
2023-01-29T13:06:51.367Z,98146.59
2023-01-29T13:09:29.055Z,98147.70
2023-01-29T13:12:21.905Z,98144.49
2023-01-29T13:14:56.720Z,98148.13
2023-01-29T13:17:49.323Z,98153.13
2023-01-29T13:20:30.245Z,98148.80
2023-01-29T13:23:15.621Z,98144.88
2023-01-29T13:25:44.122Z,98142.69
2023-01-29T13:28:25.985Z,98146.38
2023-01-29T13:31:13.226Z,98146.31
2023-01-29T13:33:51.843Z,98148.75
2023-01-29T13:36:27.673Z,98148.42
2023-01-29T13:39:04.120Z,98153.52
2023-01-29T13:41:38.613Z,98156.70
2023-01-29T13:44:19.221Z,98157.59
2023-01-29T13:46:56.240Z,98162.18
2023-01-29T13:49:39.977Z,98160.05
2023-01-29T13:52:30.497Z,98165.27
2023-01-29T13:55:04.253Z,98165.58
2023-01-29T13:57:45.033Z,98162.27
2023-01-29T14:00:22.684Z,98162.56
2023-01-29T14:02:57.175Z,98162.55
2023-01-29T14:05:31.924Z,98156.56
2023-01-29T14:08:26.473Z,98158.94
2023-01-29T14:11:13.671Z,98160.34
2023-01-29T14:13:44.012Z,98159.73
2023-01-29T14:16:12.485Z,98159.10
2023-01-29T14:18:57.400Z,98157.91
2023-01-29T14:21:36.126Z,98155.27
2023-01-29T14:24:16.618Z,98158.17
2023-01-29T14:26:48.403Z,98164.19
2023-01-29T14:29:33.773Z,98165.46
2023-01-29T14:32:07.174Z,98164.65
2023-01-29T14:34:42.956Z,98165.98
2023-01-29T14:37:18.864Z,98165.38
2023-01-29T14:39:59.826Z,98171.41
2023-01-29T14:42:35.620Z,98170.86
2023-01-29T14:45:11.522Z,98173.15
2023-01-29T14:47:39.908Z,98173.91
2023-01-29T14:50:32.011Z,98173.09
2023-01-29T14:53:06.568Z,98169.95
2023-01-29T14:56:00.166Z,98173.85
2023-01-29T14:58:44.106Z,98169.27
2023-01-29T15:01:34.286Z,98171.59
2023-01-29T15:04:19.383Z,98174.98
2023-01-29T15:06:55.583Z,98179.96
2023-01-29T15:09:35.949Z,98183.39
2023-01-29T15:12:11.129Z,98187.80
2023-01-29T15:14:50.403Z,98187.22
2023-01-29T15:17:26.791Z,98189.79
2023-01-29T15:19:56.953Z,98192.45
2023-01-29T15:22:26.385Z,98194.90
2023-01-29T15:25:20.702Z,98196.33
2023-01-29T15:27:51.689Z,98197.98
2023-01-29T15:30:26.607Z,98198.04
2023-01-29T15:32:55.371Z,98193.63
2023-01-29T15:35:41.705Z,98191.51
2023-01-29T15:38:19.676Z,98191.61
2023-01-29T15:41:02.479Z,98185.84
2023-01-29T15:43:44.643Z,98188.48
2023-01-29T15:46:24.321Z,98187.43
2023-01-29T15:48:55.342Z,98193.39
2023-01-29T15:51:26.279Z,98196.24
2023-01-29T15:54:09.862Z,98198.38
2023-01-29T15:56:51.779Z,98196.46
2023-01-29T15:59:25.071Z,98197.60
2023-01-29T16:01:54.405Z,98195.84
2023-01-29T16:04:30.515Z,98199.65
2023-01-29T16:07:00.928Z,98198.63
2023-01-29T16:09:30.212Z,98198.48
2023-01-29T16:12:00.205Z,98196.02
2023-01-29T16:14:30.529Z,98193.78
2023-01-29T16:17:11.887Z,98194.78
2023-01-29T16:19:40.407Z,98190.54
2023-01-29T16:22:10.322Z,98187.70
2023-01-29T16:24:39.326Z,98182.80
2023-01-29T16:27:13.761Z,98177.98
2023-01-29T16:29:42.280Z,98176.96
2023-01-29T16:32:14.083Z,98177.78
2023-01-29T16:34:45.858Z,98181.42
2023-01-29T16:37:40.617Z,98181.38
2023-01-29T16:40:25.763Z,98185.27
2023-01-29T16:43:34.263Z,98186.90
2023-01-29T16:46:26.339Z,98186.48
2023-01-29T16:48:55.046Z,98188.55
2023-01-29T16:51:28.550Z,98192.04
2023-01-29T16:54:02.749Z,98192.63
2023-01-29T16:56:33.549Z,98193.89
2023-01-29T16:59:06.051Z,98198.59
2023-01-29T17:01:36.159Z,98199.54
2023-01-29T17:04:17.353Z,98199.91
2023-01-29T17:06:49.154Z,98197.46
2023-01-29T17:09:26.593Z,98196.14
2023-01-29T17:12:03.118Z,98195.73
2023-01-29T17:14:32.871Z,98197.26
2023-01-29T17:17:15.258Z,98197.62
2023-01-29T17:19:43.679Z,98195.33
2023-01-29T17:22:15.038Z,98197.73
2023-01-29T17:24:44.053Z,98196.23
2023-01-29T17:27:19.600Z,98197.65
2023-01-29T17:29:48.623Z,98198.30
2023-01-29T17:32:19.086Z,98200.19
2023-01-29T17:34:47.610Z,98195.09
2023-01-29T17:37:16.689Z,98190.51
2023-01-29T17:39:50.554Z,98192.05
2023-01-29T17:42:18.923Z,98194.45
2023-01-29T17:44:47.314Z,98194.45
2023-01-29T17:47:15.850Z,98193.80
2023-01-29T17:49:44.341Z,98198.02
2023-01-29T17:52:12.880Z,98199.02
2023-01-29T17:54:41.520Z,98201.30
2023-01-29T17:57:18.601Z,98198.65
2023-01-29T17:59:46.996Z,98196.20
2023-01-29T18:02:29.135Z,98201.10
2023-01-29T18:04:58.476Z,98198.67
2023-01-29T18:07:26.943Z,98200.56
2023-01-29T18:09:55.368Z,98207.05
2023-01-29T18:12:23.826Z,98212.31
2023-01-29T18:14:52.181Z,98211.39
2023-01-29T18:17:22.711Z,98210.70
2023-01-29T18:19:51.111Z,98211.20
2023-01-29T18:22:19.520Z,98213.52
2023-01-29T18:24:47.933Z,98213.29
2023-01-29T18:27:16.395Z,98211.19
2023-01-29T18:29:44.908Z,98209.92
2023-01-29T18:32:13.374Z,98210.44
2023-01-29T18:34:41.802Z,98214.54
2023-01-29T18:37:12.215Z,98213.40
2023-01-29T18:39:41.527Z,98219.20
2023-01-29T18:42:09.898Z,98223.81
2023-01-29T18:44:38.780Z,98225.52
2023-01-29T18:47:07.233Z,98224.17
2023-01-29T18:49:39.288Z,98221.58
2023-01-29T18:52:09.119Z,98220.47
2023-01-29T18:54:37.607Z,98221.27
2023-01-29T18:57:14.636Z,98218.10
2023-01-29T18:59:45.040Z,98220.04
2023-01-29T19:02:16.476Z,98220.57
2023-01-29T19:04:45.527Z,98218.57
2023-01-29T19:07:15.439Z,98217.77
2023-01-29T19:09:46.689Z,98214.59
2023-01-29T19:12:15.173Z,98215.73
2023-01-29T19:14:43.582Z,98215.39
2023-01-29T19:17:12.053Z,98213.92
2023-01-29T19:19:40.543Z,98215.25
2023-01-29T19:22:09.015Z,98219.10
2023-01-29T19:24:39.120Z,98219.41
2023-01-29T19:27:07.628Z,98224.05
2023-01-29T19:29:36.329Z,98222.05
2023-01-29T19:32:04.995Z,98221.39
2023-01-29T19:34:33.590Z,98225.32
2023-01-29T19:37:02.258Z,98225.17
2023-01-29T19:39:33.965Z,98224.13
2023-01-29T19:42:02.598Z,98221.86
2023-01-29T19:44:31.142Z,98222.23
2023-01-29T19:46:59.671Z,98225.11
2023-01-29T19:49:30.280Z,98224.63
2023-01-29T19:51:59.247Z,98231.56
2023-01-29T19:54:28.485Z,98228.10
2023-01-29T19:56:57.274Z,98231.92
2023-01-29T19:59:25.774Z,98230.96
2023-01-29T20:01:54.240Z,98233.83
2023-01-29T20:04:22.702Z,98233.21
2023-01-29T20:06:51.105Z,98231.31
2023-01-29T20:09:19.495Z,98231.36
2023-01-29T20:11:47.923Z,98227.67
2023-01-29T20:14:16.401Z,98229.20
2023-01-29T20:16:44.947Z,98227.13
2023-01-29T20:19:15.156Z,98225.36
2023-01-29T20:21:46.985Z,98228.90
2023-01-29T20:24:15.567Z,98228.86
2023-01-29T20:26:44.113Z,98226.29
2023-01-29T20:29:13.592Z,98228.19
2023-01-29T20:31:42.091Z,98225.51
2023-01-29T20:34:10.690Z,98225.77
2023-01-29T20:36:39.109Z,98224.64
2023-01-29T20:39:07.561Z,98224.24
2023-01-29T20:41:37.265Z,98228.90
2023-01-29T20:44:05.878Z,98230.46
2023-01-29T20:46:35.571Z,98234.98
2023-01-29T20:49:04.622Z,98236.27
2023-01-29T20:51:33.424Z,98232.70
2023-01-29T20:54:01.764Z,98228.38
2023-01-29T20:56:36.482Z,98230.57
2023-01-29T20:59:11.367Z,98226.31
2023-01-29T21:01:39.829Z,98225.44
2023-01-29T21:04:08.295Z,98220.95
2023-01-29T21:06:36.784Z,98218.23
2023-01-29T21:09:05.307Z,98215.15
2023-01-29T21:11:33.843Z,98212.80
2023-01-29T21:14:02.320Z,98210.10
2023-01-29T21:16:30.994Z,98206.39
2023-01-29T21:19:00.184Z,98210.02
2023-01-29T21:21:28.603Z,98214.48
2023-01-29T21:23:58.343Z,98212.52
2023-01-29T21:26:26.838Z,98207.92
2023-01-29T21:28:55.327Z,98209.25
2023-01-29T21:31:23.859Z,98207.88
2023-01-29T21:33:52.429Z,98210.30
2023-01-29T21:36:21.077Z,98217.96
2023-01-29T21:38:49.605Z,98215.60
2023-01-29T21:41:18.071Z,98215.05
2023-01-29T21:43:46.525Z,98212.61
2023-01-29T21:46:16.300Z,98213.96
2023-01-29T21:48:44.877Z,98214.08
2023-01-29T21:51:13.292Z,98216.31
2023-01-29T21:53:42.553Z,98215.47
2023-01-29T21:56:10.940Z,98213.52
2023-01-29T21:58:39.403Z,98207.52
2023-01-29T22:01:35.533Z,98207.98
2023-01-29T22:03:57.309Z,98209.65
2023-01-29T22:06:26.408Z,98208.96
2023-01-29T22:08:54.853Z,98212.04
2023-01-29T22:11:23.278Z,98212.29
2023-01-29T22:13:51.728Z,98203.16
2023-01-29T22:16:20.320Z,98196.71
2023-01-29T22:18:49.721Z,98194.69
2023-01-29T22:21:18.141Z,98196.39
2023-01-29T22:23:48.537Z,98195.27
2023-01-29T22:26:17.422Z,98194.23
2023-01-29T22:28:46.403Z,98193.83
2023-01-29T22:31:14.989Z,98191.95
2023-01-29T22:33:43.580Z,98186.67
2023-01-29T22:36:12.062Z,98191.58
2023-01-29T22:38:43.275Z,98196.65
2023-01-29T22:41:12.673Z,98192.03
2023-01-29T22:43:41.332Z,98189.21
2023-01-29T22:46:13.185Z,98183.48
2023-01-29T22:48:41.703Z,98180.39
2023-01-29T22:51:10.555Z,98179.64
2023-01-29T22:53:49.694Z,98175.71
2023-01-29T22:56:19.280Z,98177.66
2023-01-29T22:58:52.511Z,98175.19
2023-01-29T23:01:24.062Z,98176.29
2023-01-29T23:03:53.086Z,98182.10
2023-01-29T23:06:22.059Z,98180.98
2023-01-29T23:08:51.244Z,98185.66
2023-01-29T23:11:23.670Z,98193.08
2023-01-29T23:13:54.614Z,98194.08
2023-01-29T23:16:27.695Z,98194.84
2023-01-29T23:18:57.390Z,98196.36
2023-01-29T23:21:27.458Z,98191.86
2023-01-29T23:23:58.464Z,98192.70
2023-01-29T23:26:47.398Z,98192.27
2023-01-29T23:29:16.018Z,98191.48
2023-01-29T23:31:44.702Z,98192.96
2023-01-29T23:34:13.987Z,98195.31
2023-01-29T23:36:42.685Z,98194.84
2023-01-29T23:39:11.116Z,98191.54
2023-01-29T23:41:39.574Z,98191.31
2023-01-29T23:44:08.215Z,98193.52
2023-01-29T23:46:36.736Z,98191.55
2023-01-29T23:49:05.109Z,98190.95
2023-01-29T23:51:33.467Z,98189.13
2023-01-29T23:54:01.895Z,98183.79
2023-01-29T23:56:30.410Z,98180.95
2023-01-29T23:58:59.151Z,98174.23
